sensor_id;sensor_type;location;lat;lon;timestamp;P1;durP1;ratioP1;P2;durP2;ratioP2
20478;SDS011;10398;52.490;13.434;2023-05-07T00:01:39;16.37;;;7.53;;
20478;SDS011;10398;52.490;13.434;2023-05-07T00:04:05;16.30;;;6.87;;
20478;SDS011;10398;52.490;13.434;2023-05-07T00:06:31;10.30;;;5.73;;
20478;SDS011;10398;52.490;13.434;2023-05-07T00:08:58;13.60;;;6.83;;
20478;SDS011;10398;52.490;13.434;2023-05-07T00:11:25;13.30;;;7.17;;
20478;SDS011;10398;52.490;13.434;2023-05-07T00:13:51;15.87;;;7.27;;
20478;SDS011;10398;52.490;13.434;2023-05-07T00:16:17;12.30;;;6.27;;
20478;SDS011;10398;52.490;13.434;2023-05-07T00:18:43;13.70;;;6.60;;
20478;SDS011;10398;52.490;13.434;2023-05-07T00:21:10;11.87;;;6.17;;
20478;SDS011;10398;52.490;13.434;2023-05-07T00:23:35;10.93;;;5.73;;
20478;SDS011;10398;52.490;13.434;2023-05-07T00:26:01;9.57;;;5.97;;
20478;SDS011;10398;52.490;13.434;2023-05-07T00:28:27;12.90;;;5.70;;
20478;SDS011;10398;52.490;13.434;2023-05-07T00:30:53;12.70;;;5.63;;
20478;SDS011;10398;52.490;13.434;2023-05-07T00:33:18;10.60;;;5.50;;
20478;SDS011;10398;52.490;13.434;2023-05-07T00:35:45;12.87;;;6.37;;
20478;SDS011;10398;52.490;13.434;2023-05-07T00:38:11;10.13;;;5.87;;
20478;SDS011;10398;52.490;13.434;2023-05-07T00:40:37;10.27;;;5.17;;
20478;SDS011;10398;52.490;13.434;2023-05-07T00:43:02;11.73;;;5.63;;
20478;SDS011;10398;52.490;13.434;2023-05-07T00:45:28;13.10;;;5.70;;
20478;SDS011;10398;52.490;13.434;2023-05-07T00:47:58;12.93;;;5.60;;
20478;SDS011;10398;52.490;13.434;2023-05-07T00:50:26;15.13;;;6.30;;
20478;SDS011;10398;52.490;13.434;2023-05-07T00:52:52;13.37;;;5.67;;
20478;SDS011;10398;52.490;13.434;2023-05-07T00:55:18;12.77;;;5.87;;
20478;SDS011;10398;52.490;13.434;2023-05-07T00:57:45;10.90;;;5.83;;
20478;SDS011;10398;52.490;13.434;2023-05-07T01:00:11;13.20;;;5.70;;
20478;SDS011;10398;52.490;13.434;2023-05-07T01:02:40;16.97;;;6.13;;
20478;SDS011;10398;52.490;13.434;2023-05-07T01:05:07;11.13;;;5.73;;
20478;SDS011;10398;52.490;13.434;2023-05-07T01:07:36;9.90;;;5.90;;
20478;SDS011;10398;52.490;13.434;2023-05-07T01:10:04;16.10;;;5.60;;
20478;SDS011;10398;52.490;13.434;2023-05-07T01:12:31;10.17;;;5.77;;
20478;SDS011;10398;52.490;13.434;2023-05-07T01:14:58;10.63;;;5.47;;
20478;SDS011;10398;52.490;13.434;2023-05-07T01:17:24;9.90;;;5.60;;
20478;SDS011;10398;52.490;13.434;2023-05-07T01:19:49;15.30;;;6.03;;
20478;SDS011;10398;52.490;13.434;2023-05-07T01:22:16;10.73;;;5.20;;
20478;SDS011;10398;52.490;13.434;2023-05-07T01:24:46;10.17;;;5.53;;
20478;SDS011;10398;52.490;13.434;2023-05-07T01:27:12;8.87;;;4.87;;
20478;SDS011;10398;52.490;13.434;2023-05-07T01:29:38;11.60;;;5.67;;
20478;SDS011;10398;52.490;13.434;2023-05-07T01:32:03;9.53;;;5.33;;
20478;SDS011;10398;52.490;13.434;2023-05-07T01:34:31;11.77;;;5.40;;
20478;SDS011;10398;52.490;13.434;2023-05-07T01:36:59;10.47;;;5.43;;
20478;SDS011;10398;52.490;13.434;2023-05-07T01:39:27;7.87;;;4.90;;
20478;SDS011;10398;52.490;13.434;2023-05-07T01:41:54;11.77;;;5.63;;
20478;SDS011;10398;52.490;13.434;2023-05-07T01:44:21;9.87;;;5.17;;
20478;SDS011;10398;52.490;13.434;2023-05-07T01:46:47;13.23;;;5.07;;
20478;SDS011;10398;52.490;13.434;2023-05-07T01:49:14;9.20;;;4.93;;
20478;SDS011;10398;52.490;13.434;2023-05-07T01:51:40;9.33;;;5.20;;
20478;SDS011;10398;52.490;13.434;2023-05-07T01:54:06;9.13;;;4.77;;
20478;SDS011;10398;52.490;13.434;2023-05-07T01:56:33;13.17;;;5.17;;
20478;SDS011;10398;52.490;13.434;2023-05-07T01:58:59;9.77;;;4.70;;
20478;SDS011;10398;52.490;13.434;2023-05-07T02:01:24;11.13;;;5.40;;
20478;SDS011;10398;52.490;13.434;2023-05-07T02:03:50;8.27;;;4.77;;
20478;SDS011;10398;52.490;13.434;2023-05-07T02:06:16;11.80;;;5.00;;
20478;SDS011;10398;52.490;13.434;2023-05-07T02:08:42;11.90;;;5.33;;
20478;SDS011;10398;52.490;13.434;2023-05-07T02:11:07;9.27;;;5.10;;
20478;SDS011;10398;52.490;13.434;2023-05-07T02:13:33;9.47;;;5.10;;
20478;SDS011;10398;52.490;13.434;2023-05-07T02:15:59;12.30;;;5.10;;
20478;SDS011;10398;52.490;13.434;2023-05-07T02:18:25;10.23;;;5.57;;
20478;SDS011;10398;52.490;13.434;2023-05-07T02:20:51;9.37;;;4.97;;
20478;SDS011;10398;52.490;13.434;2023-05-07T02:23:17;9.90;;;5.10;;
20478;SDS011;10398;52.490;13.434;2023-05-07T02:25:42;10.70;;;5.13;;
20478;SDS011;10398;52.490;13.434;2023-05-07T02:28:08;8.57;;;4.90;;
20478;SDS011;10398;52.490;13.434;2023-05-07T02:30:34;10.87;;;4.70;;
20478;SDS011;10398;52.490;13.434;2023-05-07T02:33:00;10.77;;;4.87;;
20478;SDS011;10398;52.490;13.434;2023-05-07T02:35:25;11.60;;;4.70;;
20478;SDS011;10398;52.490;13.434;2023-05-07T02:37:51;9.60;;;5.00;;
20478;SDS011;10398;52.490;13.434;2023-05-07T02:40:17;11.13;;;5.37;;
20478;SDS011;10398;52.490;13.434;2023-05-07T02:42:42;8.93;;;4.63;;
20478;SDS011;10398;52.490;13.434;2023-05-07T02:45:08;10.80;;;6.00;;
20478;SDS011;10398;52.490;13.434;2023-05-07T02:47:34;9.63;;;4.83;;
20478;SDS011;10398;52.490;13.434;2023-05-07T02:50:00;10.93;;;5.37;;
20478;SDS011;10398;52.490;13.434;2023-05-07T02:52:26;10.90;;;5.40;;
20478;SDS011;10398;52.490;13.434;2023-05-07T02:54:51;9.77;;;5.13;;
20478;SDS011;10398;52.490;13.434;2023-05-07T02:57:17;9.60;;;5.23;;
20478;SDS011;10398;52.490;13.434;2023-05-07T02:59:43;8.63;;;4.87;;
20478;SDS011;10398;52.490;13.434;2023-05-07T03:02:08;8.07;;;4.70;;
20478;SDS011;10398;52.490;13.434;2023-05-07T03:04:35;10.20;;;5.07;;
20478;SDS011;10398;52.490;13.434;2023-05-07T03:07:00;11.27;;;4.27;;
20478;SDS011;10398;52.490;13.434;2023-05-07T03:09:26;10.53;;;4.60;;
20478;SDS011;10398;52.490;13.434;2023-05-07T03:11:51;10.27;;;5.10;;
20478;SDS011;10398;52.490;13.434;2023-05-07T03:14:17;8.33;;;4.90;;
20478;SDS011;10398;52.490;13.434;2023-05-07T03:16:43;10.97;;;4.13;;
20478;SDS011;10398;52.490;13.434;2023-05-07T03:19:08;8.53;;;4.50;;
20478;SDS011;10398;52.490;13.434;2023-05-07T03:21:34;9.43;;;4.90;;
20478;SDS011;10398;52.490;13.434;2023-05-07T03:24:00;11.03;;;4.77;;
20478;SDS011;10398;52.490;13.434;2023-05-07T03:26:25;9.60;;;4.50;;
20478;SDS011;10398;52.490;13.434;2023-05-07T03:28:51;11.37;;;5.17;;
20478;SDS011;10398;52.490;13.434;2023-05-07T03:31:17;7.23;;;4.13;;
20478;SDS011;10398;52.490;13.434;2023-05-07T03:33:50;9.53;;;4.37;;
20478;SDS011;10398;52.490;13.434;2023-05-07T03:36:19;8.23;;;4.23;;
20478;SDS011;10398;52.490;13.434;2023-05-07T03:38:45;9.50;;;4.67;;
20478;SDS011;10398;52.490;13.434;2023-05-07T03:41:11;9.60;;;5.20;;
20478;SDS011;10398;52.490;13.434;2023-05-07T03:43:37;8.77;;;4.63;;
20478;SDS011;10398;52.490;13.434;2023-05-07T03:46:03;7.57;;;4.60;;
20478;SDS011;10398;52.490;13.434;2023-05-07T03:48:29;9.13;;;5.40;;
20478;SDS011;10398;52.490;13.434;2023-05-07T03:50:55;8.40;;;4.73;;
20478;SDS011;10398;52.490;13.434;2023-05-07T03:53:22;9.90;;;5.07;;
20478;SDS011;10398;52.490;13.434;2023-05-07T03:55:47;7.83;;;5.17;;
20478;SDS011;10398;52.490;13.434;2023-05-07T03:58:13;11.13;;;4.93;;
20478;SDS011;10398;52.490;13.434;2023-05-07T04:00:38;10.23;;;5.33;;
20478;SDS011;10398;52.490;13.434;2023-05-07T04:03:05;7.60;;;4.47;;
20478;SDS011;10398;52.490;13.434;2023-05-07T04:05:31;10.37;;;4.87;;
20478;SDS011;10398;52.490;13.434;2023-05-07T04:08:00;8.30;;;5.00;;
20478;SDS011;10398;52.490;13.434;2023-05-07T04:10:26;9.53;;;4.60;;
20478;SDS011;10398;52.490;13.434;2023-05-07T04:12:53;8.67;;;4.60;;
20478;SDS011;10398;52.490;13.434;2023-05-07T04:15:19;7.17;;;4.60;;
20478;SDS011;10398;52.490;13.434;2023-05-07T04:17:44;9.97;;;5.10;;
20478;SDS011;10398;52.490;13.434;2023-05-07T04:20:13;8.10;;;4.60;;
20478;SDS011;10398;52.490;13.434;2023-05-07T04:22:40;8.10;;;4.73;;
20478;SDS011;10398;52.490;13.434;2023-05-07T04:25:06;7.53;;;4.13;;
20478;SDS011;10398;52.490;13.434;2023-05-07T04:27:34;8.50;;;4.30;;
20478;SDS011;10398;52.490;13.434;2023-05-07T04:29:59;11.27;;;4.60;;
20478;SDS011;10398;52.490;13.434;2023-05-07T04:32:25;10.73;;;4.77;;
20478;SDS011;10398;52.490;13.434;2023-05-07T04:34:51;9.00;;;4.60;;
20478;SDS011;10398;52.490;13.434;2023-05-07T04:37:17;6.93;;;4.50;;
20478;SDS011;10398;52.490;13.434;2023-05-07T04:39:43;9.27;;;4.10;;
20478;SDS011;10398;52.490;13.434;2023-05-07T04:42:08;8.03;;;4.03;;
20478;SDS011;10398;52.490;13.434;2023-05-07T04:44:35;8.80;;;3.73;;
20478;SDS011;10398;52.490;13.434;2023-05-07T04:47:02;7.67;;;4.27;;
20478;SDS011;10398;52.490;13.434;2023-05-07T04:49:27;6.73;;;4.30;;
20478;SDS011;10398;52.490;13.434;2023-05-07T04:51:53;9.33;;;5.13;;
20478;SDS011;10398;52.490;13.434;2023-05-07T04:54:19;11.73;;;4.83;;
20478;SDS011;10398;52.490;13.434;2023-05-07T04:56:44;7.07;;;3.97;;
20478;SDS011;10398;52.490;13.434;2023-05-07T04:59:10;7.33;;;4.37;;
20478;SDS011;10398;52.490;13.434;2023-05-07T05:01:35;8.27;;;3.97;;
20478;SDS011;10398;52.490;13.434;2023-05-07T05:04:01;7.03;;;4.03;;
20478;SDS011;10398;52.490;13.434;2023-05-07T05:06:27;7.43;;;3.93;;
20478;SDS011;10398;52.490;13.434;2023-05-07T05:08:52;6.83;;;3.80;;
20478;SDS011;10398;52.490;13.434;2023-05-07T05:11:18;7.40;;;3.77;;
20478;SDS011;10398;52.490;13.434;2023-05-07T05:13:44;6.80;;;3.40;;
20478;SDS011;10398;52.490;13.434;2023-05-07T05:16:09;6.17;;;3.43;;
20478;SDS011;10398;52.490;13.434;2023-05-07T05:18:35;9.90;;;3.60;;
20478;SDS011;10398;52.490;13.434;2023-05-07T05:21:01;5.20;;;3.07;;
20478;SDS011;10398;52.490;13.434;2023-05-07T05:23:26;6.13;;;3.17;;
20478;SDS011;10398;52.490;13.434;2023-05-07T05:25:58;8.20;;;3.67;;
20478;SDS011;10398;52.490;13.434;2023-05-07T05:28:24;7.17;;;3.83;;
20478;SDS011;10398;52.490;13.434;2023-05-07T05:30:51;9.80;;;4.00;;
20478;SDS011;10398;52.490;13.434;2023-05-07T05:33:17;6.20;;;3.67;;
20478;SDS011;10398;52.490;13.434;2023-05-07T05:35:42;6.47;;;3.87;;
20478;SDS011;10398;52.490;13.434;2023-05-07T05:38:08;9.17;;;3.80;;
20478;SDS011;10398;52.490;13.434;2023-05-07T05:40:33;7.90;;;3.80;;
20478;SDS011;10398;52.490;13.434;2023-05-07T05:42:59;9.50;;;3.13;;
20478;SDS011;10398;52.490;13.434;2023-05-07T05:45:25;5.00;;;3.43;;
20478;SDS011;10398;52.490;13.434;2023-05-07T05:47:51;11.50;;;4.10;;
20478;SDS011;10398;52.490;13.434;2023-05-07T05:50:16;6.53;;;4.33;;
20478;SDS011;10398;52.490;13.434;2023-05-07T05:52:42;9.47;;;3.47;;
20478;SDS011;10398;52.490;13.434;2023-05-07T05:55:08;5.13;;;3.53;;
20478;SDS011;10398;52.490;13.434;2023-05-07T05:57:34;7.90;;;4.33;;
20478;SDS011;10398;52.490;13.434;2023-05-07T06:00:00;8.87;;;3.87;;
20478;SDS011;10398;52.490;13.434;2023-05-07T06:02:27;7.87;;;3.90;;
20478;SDS011;10398;52.490;13.434;2023-05-07T06:04:53;8.03;;;4.20;;
20478;SDS011;10398;52.490;13.434;2023-05-07T06:07:18;7.27;;;3.97;;
20478;SDS011;10398;52.490;13.434;2023-05-07T06:09:44;9.93;;;3.70;;
20478;SDS011;10398;52.490;13.434;2023-05-07T06:12:10;7.77;;;3.90;;
20478;SDS011;10398;52.490;13.434;2023-05-07T06:14:36;9.73;;;4.00;;
20478;SDS011;10398;52.490;13.434;2023-05-07T06:17:02;10.83;;;4.03;;
20478;SDS011;10398;52.490;13.434;2023-05-07T06:19:27;6.80;;;3.67;;
20478;SDS011;10398;52.490;13.434;2023-05-07T06:21:53;6.27;;;3.70;;
20478;SDS011;10398;52.490;13.434;2023-05-07T06:24:21;7.37;;;3.57;;
20478;SDS011;10398;52.490;13.434;2023-05-07T06:26:46;5.30;;;3.47;;
20478;SDS011;10398;52.490;13.434;2023-05-07T06:29:12;10.63;;;4.50;;
20478;SDS011;10398;52.490;13.434;2023-05-07T06:31:38;9.97;;;4.30;;
20478;SDS011;10398;52.490;13.434;2023-05-07T06:34:03;9.80;;;4.70;;
20478;SDS011;10398;52.490;13.434;2023-05-07T06:36:29;10.10;;;5.00;;
20478;SDS011;10398;52.490;13.434;2023-05-07T06:38:55;7.97;;;4.20;;
20478;SDS011;10398;52.490;13.434;2023-05-07T06:41:21;5.60;;;3.77;;
20478;SDS011;10398;52.490;13.434;2023-05-07T06:43:47;6.53;;;3.40;;
20478;SDS011;10398;52.490;13.434;2023-05-07T06:46:12;8.87;;;4.03;;
20478;SDS011;10398;52.490;13.434;2023-05-07T06:48:38;6.47;;;3.40;;
20478;SDS011;10398;52.490;13.434;2023-05-07T06:51:04;7.70;;;3.70;;
20478;SDS011;10398;52.490;13.434;2023-05-07T06:53:29;8.43;;;3.87;;
20478;SDS011;10398;52.490;13.434;2023-05-07T06:55:55;9.53;;;3.63;;
20478;SDS011;10398;52.490;13.434;2023-05-07T06:58:21;7.70;;;3.93;;
20478;SDS011;10398;52.490;13.434;2023-05-07T07:00:47;7.67;;;3.43;;
20478;SDS011;10398;52.490;13.434;2023-05-07T07:03:13;6.97;;;3.73;;
20478;SDS011;10398;52.490;13.434;2023-05-07T07:05:40;6.23;;;3.57;;
20478;SDS011;10398;52.490;13.434;2023-05-07T07:08:06;8.77;;;3.80;;
20478;SDS011;10398;52.490;13.434;2023-05-07T07:10:32;7.27;;;3.93;;
20478;SDS011;10398;52.490;13.434;2023-05-07T07:12:58;5.17;;;3.20;;
20478;SDS011;10398;52.490;13.434;2023-05-07T07:15:23;5.33;;;3.23;;
20478;SDS011;10398;52.490;13.434;2023-05-07T07:17:50;5.83;;;2.97;;
20478;SDS011;10398;52.490;13.434;2023-05-07T07:20:15;4.17;;;2.63;;
20478;SDS011;10398;52.490;13.434;2023-05-07T07:22:41;4.63;;;2.57;;
20478;SDS011;10398;52.490;13.434;2023-05-07T07:25:07;4.40;;;2.80;;
20478;SDS011;10398;52.490;13.434;2023-05-07T07:27:33;5.63;;;2.80;;
20478;SDS011;10398;52.490;13.434;2023-05-07T07:29:59;5.17;;;2.70;;
20478;SDS011;10398;52.490;13.434;2023-05-07T07:32:25;6.53;;;3.10;;
20478;SDS011;10398;52.490;13.434;2023-05-07T07:34:51;4.57;;;2.57;;
20478;SDS011;10398;52.490;13.434;2023-05-07T07:37:16;4.53;;;2.80;;
20478;SDS011;10398;52.490;13.434;2023-05-07T07:39:42;3.53;;;2.40;;
20478;SDS011;10398;52.490;13.434;2023-05-07T07:42:08;9.57;;;2.80;;
20478;SDS011;10398;52.490;13.434;2023-05-07T07:44:33;15.87;;;6.63;;
20478;SDS011;10398;52.490;13.434;2023-05-07T07:46:59;7.60;;;3.27;;
20478;SDS011;10398;52.490;13.434;2023-05-07T07:49:25;6.33;;;2.90;;
20478;SDS011;10398;52.490;13.434;2023-05-07T07:51:51;4.17;;;2.43;;
20478;SDS011;10398;52.490;13.434;2023-05-07T07:54:17;8.20;;;3.03;;
20478;SDS011;10398;52.490;13.434;2023-05-07T07:56:42;4.70;;;2.33;;
20478;SDS011;10398;52.490;13.434;2023-05-07T07:59:08;10.60;;;3.27;;
20478;SDS011;10398;52.490;13.434;2023-05-07T08:01:34;8.17;;;2.50;;
20478;SDS011;10398;52.490;13.434;2023-05-07T08:03:59;6.03;;;3.00;;
20478;SDS011;10398;52.490;13.434;2023-05-07T08:06:27;5.53;;;2.50;;
20478;SDS011;10398;52.490;13.434;2023-05-07T08:08:54;4.87;;;2.57;;
20478;SDS011;10398;52.490;13.434;2023-05-07T08:11:20;6.90;;;2.70;;
20478;SDS011;10398;52.490;13.434;2023-05-07T08:13:46;3.30;;;2.17;;
20478;SDS011;10398;52.490;13.434;2023-05-07T08:16:12;8.57;;;2.37;;
20478;SDS011;10398;52.490;13.434;2023-05-07T08:18:38;5.70;;;2.77;;
20478;SDS011;10398;52.490;13.434;2023-05-07T08:21:04;6.83;;;2.27;;
20478;SDS011;10398;52.490;13.434;2023-05-07T08:23:29;5.50;;;2.37;;
20478;SDS011;10398;52.490;13.434;2023-05-07T08:25:55;6.90;;;2.40;;
20478;SDS011;10398;52.490;13.434;2023-05-07T08:28:21;6.60;;;2.47;;
20478;SDS011;10398;52.490;13.434;2023-05-07T08:30:47;5.73;;;2.30;;
20478;SDS011;10398;52.490;13.434;2023-05-07T08:33:12;3.67;;;1.97;;
20478;SDS011;10398;52.490;13.434;2023-05-07T08:35:38;3.40;;;1.63;;
20478;SDS011;10398;52.490;13.434;2023-05-07T08:38:04;6.47;;;2.30;;
20478;SDS011;10398;52.490;13.434;2023-05-07T08:40:30;4.43;;;2.00;;
20478;SDS011;10398;52.490;13.434;2023-05-07T08:43:01;9.03;;;2.60;;
20478;SDS011;10398;52.490;13.434;2023-05-07T08:45:28;3.70;;;2.13;;
20478;SDS011;10398;52.490;13.434;2023-05-07T08:47:58;5.03;;;2.13;;
20478;SDS011;10398;52.490;13.434;2023-05-07T08:50:26;4.80;;;1.88;;
20478;SDS011;10398;52.490;13.434;2023-05-07T08:52:52;8.93;;;2.80;;
20478;SDS011;10398;52.490;13.434;2023-05-07T08:55:18;4.75;;;2.25;;
20478;SDS011;10398;52.490;13.434;2023-05-07T08:57:45;5.53;;;2.10;;
20478;SDS011;10398;52.490;13.434;2023-05-07T09:00:11;4.65;;;2.05;;
20478;SDS011;10398;52.490;13.434;2023-05-07T09:02:38;5.45;;;1.75;;
20478;SDS011;10398;52.490;13.434;2023-05-07T09:05:03;6.18;;;2.03;;
20478;SDS011;10398;52.490;13.434;2023-05-07T09:07:30;5.13;;;2.33;;
20478;SDS011;10398;52.490;13.434;2023-05-07T09:09:55;5.00;;;2.07;;
20478;SDS011;10398;52.490;13.434;2023-05-07T09:12:22;4.60;;;2.28;;
20478;SDS011;10398;52.490;13.434;2023-05-07T09:14:48;5.47;;;2.13;;
20478;SDS011;10398;52.490;13.434;2023-05-07T09:17:15;5.47;;;1.93;;
20478;SDS011;10398;52.490;13.434;2023-05-07T09:19:42;3.40;;;1.53;;
20478;SDS011;10398;52.490;13.434;2023-05-07T09:22:14;2.53;;;1.40;;
20478;SDS011;10398;52.490;13.434;2023-05-07T09:24:40;2.97;;;1.67;;
20478;SDS011;10398;52.490;13.434;2023-05-07T09:27:06;3.23;;;1.70;;
20478;SDS011;10398;52.490;13.434;2023-05-07T09:29:33;3.08;;;1.67;;
20478;SDS011;10398;52.490;13.434;2023-05-07T09:32:03;4.93;;;2.10;;
20478;SDS011;10398;52.490;13.434;2023-05-07T09:34:33;2.33;;;1.40;;
20478;SDS011;10398;52.490;13.434;2023-05-07T09:37:03;3.30;;;1.50;;
20478;SDS011;10398;52.490;13.434;2023-05-07T09:39:39;3.45;;;1.75;;
20478;SDS011;10398;52.490;13.434;2023-05-07T09:42:06;6.10;;;2.63;;
20478;SDS011;10398;52.490;13.434;2023-05-07T09:44:32;2.90;;;1.80;;
20478;SDS011;10398;52.490;13.434;2023-05-07T09:46:59;5.20;;;2.43;;
20478;SDS011;10398;52.490;13.434;2023-05-07T09:49:27;4.20;;;1.80;;
20478;SDS011;10398;52.490;13.434;2023-05-07T09:51:55;4.40;;;2.03;;
20478;SDS011;10398;52.490;13.434;2023-05-07T09:54:24;6.75;;;2.55;;
20478;SDS011;10398;52.490;13.434;2023-05-07T09:56:51;5.40;;;2.67;;
20478;SDS011;10398;52.490;13.434;2023-05-07T09:59:18;8.27;;;2.50;;
20478;SDS011;10398;52.490;13.434;2023-05-07T10:01:45;5.37;;;1.73;;
20478;SDS011;10398;52.490;13.434;2023-05-07T10:04:11;2.50;;;1.33;;
20478;SDS011;10398;52.490;13.434;2023-05-07T10:06:37;2.67;;;1.47;;
20478;SDS011;10398;52.490;13.434;2023-05-07T10:09:03;5.90;;;2.77;;
20478;SDS011;10398;52.490;13.434;2023-05-07T10:11:33;3.80;;;1.73;;
20478;SDS011;10398;52.490;13.434;2023-05-07T10:14:00;2.30;;;1.23;;
20478;SDS011;10398;52.490;13.434;2023-05-07T10:16:33;3.63;;;1.30;;
20478;SDS011;10398;52.490;13.434;2023-05-07T10:19:04;5.47;;;2.30;;
20478;SDS011;10398;52.490;13.434;2023-05-07T10:21:30;6.33;;;1.90;;
20478;SDS011;10398;52.490;13.434;2023-05-07T10:24:05;12.73;;;1.73;;
20478;SDS011;10398;52.490;13.434;2023-05-07T10:26:39;8.47;;;1.30;;
20478;SDS011;10398;52.490;13.434;2023-05-07T10:29:14;2.57;;;1.40;;
20478;SDS011;10398;52.490;13.434;2023-05-07T10:34:36;3.40;;;1.30;;
20478;SDS011;10398;52.490;13.434;2023-05-07T10:37:05;3.47;;;1.30;;
20478;SDS011;10398;52.490;13.434;2023-05-07T10:39:32;4.07;;;1.37;;
20478;SDS011;10398;52.490;13.434;2023-05-07T10:42:06;5.97;;;1.40;;
20478;SDS011;10398;52.490;13.434;2023-05-07T10:44:36;2.03;;;1.00;;
20478;SDS011;10398;52.490;13.434;2023-05-07T10:47:06;3.93;;;1.20;;
20478;SDS011;10398;52.490;13.434;2023-05-07T10:49:34;4.15;;;1.23;;
20478;SDS011;10398;52.490;13.434;2023-05-07T10:54:43;2.17;;;1.27;;
20478;SDS011;10398;52.490;13.434;2023-05-07T10:59:57;1.95;;;1.15;;
20478;SDS011;10398;52.490;13.434;2023-05-07T11:02:22;1.92;;;1.02;;
20478;SDS011;10398;52.490;13.434;2023-05-07T11:08:02;1.67;;;1.10;;
20478;SDS011;10398;52.490;13.434;2023-05-07T11:11:11;3.15;;;1.20;;
20478;SDS011;10398;52.490;13.434;2023-05-07T11:16:19;3.60;;;1.00;;
20478;SDS011;10398;52.490;13.434;2023-05-07T11:18:48;1.77;;;0.93;;
20478;SDS011;10398;52.490;13.434;2023-05-07T11:24:00;2.47;;;1.10;;
20478;SDS011;10398;52.490;13.434;2023-05-07T11:26:28;11.23;;;1.20;;
20478;SDS011;10398;52.490;13.434;2023-05-07T11:28:56;1.75;;;1.10;;
20478;SDS011;10398;52.490;13.434;2023-05-07T11:31:25;1.17;;;0.82;;
20478;SDS011;10398;52.490;13.434;2023-05-07T11:33:53;3.58;;;1.30;;
20478;SDS011;10398;52.490;13.434;2023-05-07T11:36:21;1.88;;;1.02;;
20478;SDS011;10398;52.490;13.434;2023-05-07T11:38:48;2.55;;;1.30;;
20478;SDS011;10398;52.490;13.434;2023-05-07T11:41:13;2.50;;;0.93;;
20478;SDS011;10398;52.490;13.434;2023-05-07T11:43:53;2.42;;;1.17;;
20478;SDS011;10398;52.490;13.434;2023-05-07T11:46:22;2.92;;;1.00;;
20478;SDS011;10398;52.490;13.434;2023-05-07T11:48:48;3.15;;;1.13;;
20478;SDS011;10398;52.490;13.434;2023-05-07T11:51:18;5.35;;;1.10;;
20478;SDS011;10398;52.490;13.434;2023-05-07T11:53:45;2.10;;;0.95;;
20478;SDS011;10398;52.490;13.434;2023-05-07T11:56:12;3.60;;;1.30;;
20478;SDS011;10398;52.490;13.434;2023-05-07T11:58:39;6.55;;;1.30;;
20478;SDS011;10398;52.490;13.434;2023-05-07T12:01:09;4.00;;;1.10;;
20478;SDS011;10398;52.490;13.434;2023-05-07T12:03:36;2.28;;;1.38;;
20478;SDS011;10398;52.490;13.434;2023-05-07T12:06:10;3.58;;;1.20;;
20478;SDS011;10398;52.490;13.434;2023-05-07T12:08:37;1.70;;;0.90;;
20478;SDS011;10398;52.490;13.434;2023-05-07T12:11:06;1.40;;;0.90;;
20478;SDS011;10398;52.490;13.434;2023-05-07T12:13:33;1.88;;;1.00;;
20478;SDS011;10398;52.490;13.434;2023-05-07T12:15:59;4.55;;;0.98;;
20478;SDS011;10398;52.490;13.434;2023-05-07T12:18:28;2.95;;;0.98;;
20478;SDS011;10398;52.490;13.434;2023-05-07T12:20:54;4.70;;;2.13;;
20478;SDS011;10398;52.490;13.434;2023-05-07T12:23:21;2.60;;;0.80;;
20478;SDS011;10398;52.490;13.434;2023-05-07T12:25:47;3.33;;;1.05;;
20478;SDS011;10398;52.490;13.434;2023-05-07T12:28:16;2.95;;;0.95;;
20478;SDS011;10398;52.490;13.434;2023-05-07T12:30:43;1.50;;;1.20;;
20478;SDS011;10398;52.490;13.434;2023-05-07T12:33:10;2.80;;;1.58;;
20478;SDS011;10398;52.490;13.434;2023-05-07T12:35:37;4.30;;;1.48;;
20478;SDS011;10398;52.490;13.434;2023-05-07T12:38:08;2.22;;;1.10;;
20478;SDS011;10398;52.490;13.434;2023-05-07T12:40:39;1.85;;;1.02;;
20478;SDS011;10398;52.490;13.434;2023-05-07T12:43:06;2.05;;;1.10;;
20478;SDS011;10398;52.490;13.434;2023-05-07T12:45:36;2.35;;;1.10;;
20478;SDS011;10398;52.490;13.434;2023-05-07T12:48:06;1.50;;;1.10;;
20478;SDS011;10398;52.490;13.434;2023-05-07T12:50:32;12.50;;;5.10;;
20478;SDS011;10398;52.490;13.434;2023-05-07T12:52:58;2.80;;;1.48;;
20478;SDS011;10398;52.490;13.434;2023-05-07T12:55:24;1.60;;;1.00;;
20478;SDS011;10398;52.490;13.434;2023-05-07T12:57:50;2.20;;;1.13;;
20478;SDS011;10398;52.490;13.434;2023-05-07T13:00:18;2.63;;;0.80;;
20478;SDS011;10398;52.490;13.434;2023-05-07T13:03:01;1.15;;;0.73;;
20478;SDS011;10398;52.490;13.434;2023-05-07T13:05:27;1.60;;;0.70;;
20478;SDS011;10398;52.490;13.434;2023-05-07T13:07:56;1.85;;;1.00;;
20478;SDS011;10398;52.490;13.434;2023-05-07T13:10:22;1.77;;;0.95;;
20478;SDS011;10398;52.490;13.434;2023-05-07T13:12:48;2.67;;;1.25;;
20478;SDS011;10398;52.490;13.434;2023-05-07T13:15:15;2.22;;;0.93;;
20478;SDS011;10398;52.490;13.434;2023-05-07T13:17:41;3.67;;;1.05;;
20478;SDS011;10398;52.490;13.434;2023-05-07T13:20:06;2.20;;;1.08;;
20478;SDS011;10398;52.490;13.434;2023-05-07T13:22:34;3.25;;;1.35;;
20478;SDS011;10398;52.490;13.434;2023-05-07T13:24:59;2.05;;;0.77;;
20478;SDS011;10398;52.490;13.434;2023-05-07T13:27:25;1.30;;;0.90;;
20478;SDS011;10398;52.490;13.434;2023-05-07T13:29:51;2.90;;;1.20;;
20478;SDS011;10398;52.490;13.434;2023-05-07T13:32:17;2.47;;;0.80;;
20478;SDS011;10398;52.490;13.434;2023-05-07T13:34:42;2.10;;;0.88;;
20478;SDS011;10398;52.490;13.434;2023-05-07T13:37:08;2.25;;;1.45;;
20478;SDS011;10398;52.490;13.434;2023-05-07T13:39:34;5.43;;;1.70;;
20478;SDS011;10398;52.490;13.434;2023-05-07T13:41:59;4.75;;;2.33;;
20478;SDS011;10398;52.490;13.434;2023-05-07T13:44:26;2.97;;;1.30;;
20478;SDS011;10398;52.490;13.434;2023-05-07T13:46:51;2.25;;;1.23;;
20478;SDS011;10398;52.490;13.434;2023-05-07T13:49:17;5.82;;;2.30;;
20478;SDS011;10398;52.490;13.434;2023-05-07T13:51:43;8.93;;;4.10;;
20478;SDS011;10398;52.490;13.434;2023-05-07T13:54:08;3.30;;;1.63;;
20478;SDS011;10398;52.490;13.434;2023-05-07T13:56:34;2.83;;;1.50;;
20478;SDS011;10398;52.490;13.434;2023-05-07T13:59:00;1.40;;;0.90;;
20478;SDS011;10398;52.490;13.434;2023-05-07T14:01:26;1.20;;;0.75;;
20478;SDS011;10398;52.490;13.434;2023-05-07T14:03:52;2.22;;;1.00;;
20478;SDS011;10398;52.490;13.434;2023-05-07T14:06:17;2.22;;;1.30;;
20478;SDS011;10398;52.490;13.434;2023-05-07T14:08:43;1.35;;;0.85;;
20478;SDS011;10398;52.490;13.434;2023-05-07T14:11:08;1.83;;;1.10;;
20478;SDS011;10398;52.490;13.434;2023-05-07T14:13:34;2.65;;;1.45;;
20478;SDS011;10398;52.490;13.434;2023-05-07T14:16:00;2.72;;;1.10;;
20478;SDS011;10398;52.490;13.434;2023-05-07T14:18:25;1.55;;;0.85;;
20478;SDS011;10398;52.490;13.434;2023-05-07T14:20:53;4.05;;;0.82;;
20478;SDS011;10398;52.490;13.434;2023-05-07T14:23:19;2.45;;;0.80;;
20478;SDS011;10398;52.490;13.434;2023-05-07T14:25:50;1.65;;;0.77;;
20478;SDS011;10398;52.490;13.434;2023-05-07T14:28:16;2.00;;;0.90;;
20478;SDS011;10398;52.490;13.434;2023-05-07T14:30:41;2.67;;;0.90;;
20478;SDS011;10398;52.490;13.434;2023-05-07T14:33:07;1.88;;;0.73;;
20478;SDS011;10398;52.490;13.434;2023-05-07T14:35:33;2.30;;;1.03;;
20478;SDS011;10398;52.490;13.434;2023-05-07T14:37:58;4.88;;;1.17;;
20478;SDS011;10398;52.490;13.434;2023-05-07T14:40:24;3.38;;;1.52;;
20478;SDS011;10398;52.490;13.434;2023-05-07T14:42:50;1.98;;;1.17;;
20478;SDS011;10398;52.490;13.434;2023-05-07T14:45:16;5.55;;;1.88;;